Bookmark and Share
Track history (hours):
 

Pacific Dawn

Last reported at 2014-Apr-08 03:33 UTC. Time now 2014-Apr-17 12:31 UTC.
Position N 01°14' E 103°58'.
Warning: this ship's position is 9 days out of date.

Length 239 m; draft 14.6 m.

Type: Ship. MMSI: 371361000.

NotesDate/timePositionNaut miles runAvg speedWind from/ knotsBaromVisibWave heightAir tempDewpointWater temp
2014-Apr-08 03:33N 01°14' E 103°58'1312.9
2014-Apr-08 02:33N 01°08' E 103°47'1210.9
2014-Apr-08 01:30N 01°04' E 103°36'7 7.1
2014-Apr-08 00:33N 01°11' E 103°35'7 7.2
2014-Apr-07 23:33N 01°14' E 103°42'0 0.4
2014-Apr-07 22:32N 01°14' E 103°42'0 0.0
2014-Apr-07 21:20N 01°14' E 103°42'0 0.0
2014-Apr-07 20:29N 01°14' E 103°42'0 0.0
2014-Apr-07 19:32N 01°14' E 103°42'0 0.0
2014-Apr-07 17:29N 01°14' E 103°42'0 0.0
2014-Apr-07 16:32N 01°14' E 103°42'0 0.0
2014-Apr-07 15:32N 01°14' E 103°42'0 0.0
2014-Apr-07 14:32N 01°14' E 103°42'0 0.0
2014-Apr-07 13:32N 01°14' E 103°42'0 0.0
2014-Apr-07 12:32N 01°14' E 103°42'0 0.0
2014-Apr-07 11:32N 01°14' E 103°42'0 0.0
2014-Apr-07 10:32N 01°14' E 103°42'0 0.0
2014-Apr-07 09:29N 01°14' E 103°42'0 0.0
2014-Apr-07 08:32N 01°14' E 103°42'0 0.0
2014-Apr-07 07:29N 01°14' E 103°42'0 0.0
2014-Apr-07 06:23N 01°14' E 103°42'0 0.0
2014-Apr-07 05:29N 01°14' E 103°42'0 0.0
2014-Apr-07 04:14N 01°14' E 103°42'0 0.0
2014-Apr-07 03:32N 01°14' E 103°42'0 0.0
2014-Apr-07 02:32N 01°14' E 103°42'0 0.0
2014-Apr-07 01:32N 01°14' E 103°42'0 0.0
2014-Apr-07 00:32N 01°14' E 103°42'0 0.0
2014-Apr-06 23:32N 01°14' E 103°42'0 0.0
2014-Apr-06 22:26N 01°14' E 103°42'0 0.0
2014-Apr-06 21:29N 01°14' E 103°42'0 0.0
2014-Apr-06 20:32N 01°14' E 103°42'0 0.0
2014-Apr-06 19:32N 01°14' E 103°42'0 0.0
2014-Apr-06 18:29N 01°14' E 103°42'4 4.0
2014-Apr-06 17:33N 01°16' E 103°45'6 5.2
2014-Apr-06 16:29N 01°13' E 103°49'0 0.1
2014-Apr-06 15:32N 01°13' E 103°50'1 0.5
2014-Apr-06 14:34N 01°12' E 103°50'9 7.0
2014-Apr-06 13:16N 01°16' E 103°58'  
2014-Mar-29 09:33N 01°14' E 103°59'8 8.3
2014-Mar-29 08:33N 01°11' E 103°51'1312.7
2014-Mar-29 07:33N 01°04' E 103°41'1111.4
2014-Mar-29 06:33N 01°05' E 103°30'3 2.9
2014-Mar-29 05:33N 01°07' E 103°27'0 0.1
2014-Mar-29 04:33N 01°07' E 103°27'0 0.2
2014-Mar-29 03:33N 01°07' E 103°27'  

Dump ship's entire track history

sailing weather and tide predictions

Pacific Dawn — 3ECJ9 — position and weather